Conway, Missouri
Current Conditions -  °F | °C
As of 3:35 PM on Thursday 27 Nov 2014 (Local Time) from KH21 Reporting Station
Clear Clear  
Wind Chill: 37°   Ceiling: Unl
Heat Index: 37°   Visibility: 10mi
Dew Point: 23°   Wind: 0mph
Humidity: 56%   Direction: NA
Pressure: 30.44"   Gusts: NA
Location:  37.5°N, 92.82°W
Report Text: KH21 272135Z AUTO 00000KT 10SM CLR 03/M05 A3044 RMK AO2
Loading
Personal Weather Stations






























Interactive Weather Map New forecast layout! Learn more

10-Day Weather Forecast

Advertisements
Track Severe Weather on mobile